createdAt,value
2018-10-06T00:00:07.057Z,98407.44
2018-10-06T00:02:35.413Z,98407.48
2018-10-06T00:05:02.845Z,98410.25
2018-10-06T00:07:30.287Z,98413.00
2018-10-06T00:09:58.679Z,98410.16
2018-10-06T00:12:26.909Z,98418.45
2018-10-06T00:14:55.130Z,98410.72
2018-10-06T00:17:24.353Z,98407.11
2018-10-06T00:22:42.153Z,98402.30
2018-10-06T00:25:10.277Z,98395.25
2018-10-06T00:27:37.573Z,98392.38
2018-10-06T00:30:05.235Z,98383.49
2018-10-06T00:32:32.666Z,98390.08
2018-10-06T00:35:00.029Z,98385.24
2018-10-06T00:37:27.491Z,98380.30
2018-10-06T00:39:55.022Z,98379.68
2018-10-06T00:42:22.423Z,98376.09
2018-10-06T00:44:49.814Z,98370.31
2018-10-06T00:47:17.739Z,98372.23
2018-10-06T00:49:45.083Z,98370.30
2018-10-06T00:52:12.456Z,98367.16
2018-10-06T00:54:39.877Z,98361.89
2018-10-06T00:57:07.280Z,98369.66
2018-10-06T00:59:34.807Z,98359.07
2018-10-06T01:02:02.299Z,98360.48
2018-10-06T01:04:29.670Z,98348.81
2018-10-06T01:06:57.018Z,98359.00
2018-10-06T01:09:24.327Z,98355.66
2018-10-06T01:11:52.280Z,98358.77
2018-10-06T01:14:19.625Z,98349.66
2018-10-06T01:16:47.035Z,98354.17
2018-10-06T01:19:19.098Z,98353.96
2018-10-06T01:21:47.410Z,98352.38
2018-10-06T01:24:14.829Z,98348.70
2018-10-06T01:26:42.160Z,98347.62
2018-10-06T01:29:09.510Z,98344.63
2018-10-06T01:31:37.512Z,98338.16
2018-10-06T01:34:06.191Z,98338.73
2018-10-06T01:36:33.660Z,98340.16
2018-10-06T01:39:01.135Z,98329.85
2018-10-06T01:41:28.504Z,98333.13
2018-10-06T01:43:55.829Z,98327.98
2018-10-06T01:46:23.133Z,98330.11
2018-10-06T01:48:50.510Z,98331.81
2018-10-06T01:51:18.120Z,98321.66
2018-10-06T01:53:45.432Z,98320.84
2018-10-06T01:56:12.722Z,98319.13
2018-10-06T01:58:40.097Z,98328.17
2018-10-06T02:01:07.464Z,98327.46
2018-10-06T02:03:34.889Z,98325.22
2018-10-06T02:06:03.188Z,98327.80
2018-10-06T02:08:30.597Z,98326.60
2018-10-06T02:10:57.929Z,98321.25
2018-10-06T02:13:25.210Z,98315.84
2018-10-06T02:15:53.310Z,98311.31
2018-10-06T02:18:20.646Z,98312.12
2018-10-06T02:20:48.011Z,98314.19
2018-10-06T02:23:15.314Z,98312.31
2018-10-06T02:25:42.747Z,98307.20
2018-10-06T02:28:11.034Z,98309.03
2018-10-06T02:30:38.473Z,98303.09
2018-10-06T02:33:06.099Z,98303.20
2018-10-06T02:35:33.560Z,98305.03
2018-10-06T02:38:00.941Z,98303.63
2018-10-06T02:40:28.243Z,98304.89
2018-10-06T02:42:55.593Z,98302.77
2018-10-06T02:45:22.872Z,98295.78
2018-10-06T02:47:50.150Z,98285.14
2018-10-06T02:50:17.627Z,98284.06
2018-10-06T02:52:44.892Z,98272.83
2018-10-06T02:55:12.234Z,98273.81
2018-10-06T02:57:39.560Z,98261.67
2018-10-06T03:00:06.843Z,98270.47
2018-10-06T03:02:34.071Z,98260.12
2018-10-06T03:05:02.014Z,98257.80
2018-10-06T03:07:29.235Z,98253.69
2018-10-06T03:09:56.549Z,98242.66
2018-10-06T03:12:23.793Z,98237.97
2018-10-06T03:14:51.064Z,98236.38
2018-10-06T03:17:18.364Z,98235.59
2018-10-06T03:19:46.668Z,98239.23
2018-10-06T03:22:17.816Z,98237.51
2018-10-06T03:24:45.541Z,98230.93
2018-10-06T03:27:12.861Z,98223.81
2018-10-06T03:29:40.175Z,98223.09
2018-10-06T03:32:14.121Z,98218.08
2018-10-06T03:34:41.480Z,98212.93
2018-10-06T03:37:08.816Z,98211.88
2018-10-06T03:39:36.088Z,98210.62
2018-10-06T03:42:04.181Z,98213.45
2018-10-06T03:44:31.555Z,98215.23
2018-10-06T03:46:58.821Z,98220.65
2018-10-06T03:49:27.048Z,98210.72
2018-10-06T03:51:55.038Z,98213.36
2018-10-06T03:54:22.390Z,98209.14
2018-10-06T03:56:49.909Z,98206.83
2018-10-06T03:59:21.615Z,98212.63
2018-10-06T04:01:49.002Z,98212.86
2018-10-06T04:04:16.300Z,98210.25
2018-10-06T04:06:43.574Z,98216.66
2018-10-06T04:09:11.905Z,98217.98
2018-10-06T04:11:40.545Z,98216.83
2018-10-06T04:14:10.096Z,98212.34
2018-10-06T04:16:42.358Z,98214.97
2018-10-06T04:19:09.825Z,98210.92
2018-10-06T04:21:44.128Z,98213.62
2018-10-06T04:24:12.103Z,98204.22
2018-10-06T04:26:39.702Z,98197.42
2018-10-06T04:29:07.375Z,98196.37
2018-10-06T04:31:34.812Z,98198.41
2018-10-06T04:34:02.133Z,98197.26
2018-10-06T04:36:30.067Z,98195.02
2018-10-06T04:38:57.508Z,98197.88
2018-10-06T04:41:24.858Z,98196.63
2018-10-06T04:43:52.267Z,98202.17
2018-10-06T04:46:20.552Z,98194.87
2018-10-06T04:48:48.510Z,98193.91
2018-10-06T04:51:16.334Z,98185.20
2018-10-06T04:53:43.904Z,98187.58
2018-10-06T04:56:11.303Z,98187.61
2018-10-06T04:58:38.680Z,98192.33
2018-10-06T05:01:06.651Z,98181.25
2018-10-06T05:03:34.163Z,98181.48
2018-10-06T05:06:03.813Z,98178.16
2018-10-06T05:08:33.618Z,98182.21
2018-10-06T05:11:01.072Z,98179.11
2018-10-06T05:13:28.552Z,98188.28
2018-10-06T05:15:56.014Z,98181.66
2018-10-06T05:18:24.825Z,98185.81
2018-10-06T05:20:52.923Z,98185.09
2018-10-06T05:23:21.024Z,98184.09
2018-10-06T05:25:53.174Z,98182.25
2018-10-06T05:28:23.165Z,98181.39
2018-10-06T05:30:52.366Z,98183.50
2018-10-06T05:33:20.072Z,98182.97
2018-10-06T05:35:49.553Z,98177.83
2018-10-06T05:38:17.995Z,98177.50
2018-10-06T05:40:49.439Z,98177.11
2018-10-06T05:43:17.621Z,98180.01
2018-10-06T05:45:47.876Z,98174.27
2018-10-06T05:48:16.945Z,98171.83
2018-10-06T05:50:45.183Z,98161.23
2018-10-06T05:53:12.707Z,98165.28
2018-10-06T05:55:41.305Z,98161.98
2018-10-06T05:58:08.890Z,98165.37
2018-10-06T06:00:37.116Z,98170.98
2018-10-06T06:03:06.268Z,98177.44
2018-10-06T06:05:33.890Z,98178.33
2018-10-06T06:08:05.193Z,98173.63
2018-10-06T06:10:33.541Z,98170.75
2018-10-06T06:13:01.196Z,98175.50
2018-10-06T06:15:29.707Z,98181.47
2018-10-06T06:17:58.057Z,98182.61
2018-10-06T06:20:26.182Z,98187.05
2018-10-06T06:22:53.830Z,98189.55
2018-10-06T06:25:26.881Z,98190.09
2018-10-06T06:27:55.325Z,98195.70
2018-10-06T06:30:27.381Z,98191.27
2018-10-06T06:32:54.889Z,98192.66
2018-10-06T06:35:22.405Z,98191.80
2018-10-06T06:37:51.294Z,98194.73
2018-10-06T06:40:18.889Z,98192.80
2018-10-06T06:42:48.242Z,98195.97
2018-10-06T06:45:19.316Z,98192.14
2018-10-06T06:47:47.471Z,98194.66
2018-10-06T06:50:15.706Z,98190.00
2018-10-06T06:52:43.177Z,98189.36
2018-10-06T06:55:10.926Z,98185.83
2018-10-06T06:57:39.089Z,98179.37
2018-10-06T07:00:08.456Z,98181.54
2018-10-06T07:02:36.673Z,98180.14
2018-10-06T07:05:07.632Z,98172.20
2018-10-06T07:07:35.668Z,98166.92
2018-10-06T07:10:04.986Z,98160.36
2018-10-06T07:12:34.079Z,98167.10
2018-10-06T07:15:03.072Z,98157.00
2018-10-06T07:17:31.675Z,98158.97
2018-10-06T07:20:09.094Z,98160.60
2018-10-06T07:22:36.682Z,98155.91
2018-10-06T07:25:13.828Z,98148.36
2018-10-06T07:27:48.790Z,98155.91
2018-10-06T07:30:18.387Z,98160.69
2018-10-06T07:32:47.279Z,98156.02
2018-10-06T07:35:16.192Z,98159.98
2018-10-06T07:37:46.414Z,98156.11
2018-10-06T07:40:14.434Z,98151.95
2018-10-06T07:42:42.250Z,98147.42
2018-10-06T07:45:09.925Z,98148.41
2018-10-06T07:47:39.200Z,98137.76
2018-10-06T07:50:06.996Z,98141.27
2018-10-06T07:52:35.255Z,98149.89
2018-10-06T07:55:04.347Z,98142.33
2018-10-06T07:57:32.230Z,98140.31
2018-10-06T08:00:01.172Z,98140.69
2018-10-06T08:02:32.225Z,98129.66
2018-10-06T08:05:00.659Z,98138.92
2018-10-06T08:07:30.642Z,98138.27
2018-10-06T08:10:01.081Z,98138.63
2018-10-06T08:12:29.890Z,98135.68
2018-10-06T08:15:01.070Z,98134.02
2018-10-06T08:17:28.832Z,98134.78
2018-10-06T08:19:57.149Z,98138.98
2018-10-06T08:22:28.691Z,98137.92
2018-10-06T08:24:59.421Z,98135.08
2018-10-06T08:27:28.641Z,98133.47
2018-10-06T08:29:59.478Z,98131.02
2018-10-06T08:32:27.048Z,98119.85
2018-10-06T08:34:57.324Z,98122.80
2018-10-06T08:37:26.481Z,98124.78
2018-10-06T08:40:09.564Z,98119.86
2018-10-06T08:42:37.582Z,98116.37
2018-10-06T08:45:06.002Z,98120.98
2018-10-06T08:47:33.790Z,98123.87
2018-10-06T08:50:01.422Z,98120.70
2018-10-06T08:52:29.762Z,98119.04
2018-10-06T08:54:58.424Z,98121.42
2018-10-06T08:57:29.385Z,98132.72
2018-10-06T08:59:57.624Z,98128.24
2018-10-06T09:02:28.607Z,98125.09
2018-10-06T09:04:56.299Z,98131.55
2018-10-06T09:07:24.067Z,98121.92
2018-10-06T09:09:52.646Z,98126.79
2018-10-06T09:12:20.426Z,98129.23
2018-10-06T09:14:47.878Z,98126.80
2018-10-06T09:17:16.656Z,98114.99
2018-10-06T09:19:44.175Z,98111.72
2018-10-06T09:22:11.744Z,98116.02
2018-10-06T09:24:39.216Z,98109.80
2018-10-06T09:27:07.996Z,98109.66
2018-10-06T09:29:40.616Z,98109.08
2018-10-06T09:32:10.351Z,98121.40
2018-10-06T09:34:38.797Z,98113.55
2018-10-06T09:37:07.280Z,98115.20
2018-10-06T09:39:36.858Z,98106.15
2018-10-06T09:42:05.078Z,98111.61
2018-10-06T09:44:34.159Z,98112.66
2018-10-06T09:47:02.892Z,98103.31
2018-10-06T09:49:34.142Z,98098.28
2018-10-06T09:52:05.978Z,98092.67
2018-10-06T09:54:33.864Z,98083.44
2018-10-06T09:57:01.813Z,98086.37
2018-10-06T09:59:30.216Z,98087.50
2018-10-06T10:02:03.630Z,98084.44
2018-10-06T10:04:31.188Z,98086.05
2018-10-06T10:07:00.695Z,98076.56
2018-10-06T10:09:29.343Z,98076.19
2018-10-06T10:11:57.681Z,98081.20
2018-10-06T10:14:26.025Z,98068.66
2018-10-06T10:16:54.333Z,98069.19
2018-10-06T10:19:23.844Z,98063.94
2018-10-06T10:21:51.602Z,98054.61
2018-10-06T10:24:19.153Z,98049.89
2018-10-06T10:26:46.698Z,98052.61
2018-10-06T10:29:14.738Z,98053.14
2018-10-06T10:31:43.496Z,98053.50
2018-10-06T10:34:11.066Z,98042.50
2018-10-06T10:36:39.376Z,98038.02
2018-10-06T10:39:16.165Z,98035.16
2018-10-06T10:42:04.393Z,98031.61
2018-10-06T10:44:35.169Z,98026.15
2018-10-06T10:47:04.735Z,98025.38
2018-10-06T10:49:32.765Z,98014.50
2018-10-06T10:52:01.299Z,98020.58
2018-10-06T10:54:29.128Z,98015.91
2018-10-06T10:56:57.181Z,98016.25
2018-10-06T10:59:25.345Z,98004.06
2018-10-06T11:01:54.444Z,98013.02
2018-10-06T11:04:21.916Z,98007.25
2018-10-06T11:06:49.877Z,98002.31
2018-10-06T11:09:17.389Z,97993.67
2018-10-06T11:11:44.932Z,97984.69
2018-10-06T11:14:13.306Z,97984.05
2018-10-06T11:16:43.705Z,97979.34
2018-10-06T11:19:12.345Z,97963.96
2018-10-06T11:21:40.652Z,97957.84
2018-10-06T11:24:09.624Z,97954.74
2018-10-06T11:26:37.909Z,97955.98
2018-10-06T11:29:05.527Z,97949.91
2018-10-06T11:31:33.356Z,97945.16
2018-10-06T11:34:01.698Z,97943.86
2018-10-06T11:36:29.348Z,97944.28
2018-10-06T11:38:58.112Z,97948.84
2018-10-06T11:41:30.687Z,97945.72
2018-10-06T11:44:00.617Z,97939.38
2018-10-06T11:46:31.384Z,97927.69
2018-10-06T11:49:00.166Z,97933.61
2018-10-06T11:51:29.040Z,97923.64
2018-10-06T11:53:56.796Z,97919.59
2018-10-06T11:56:25.981Z,97910.75
2018-10-06T11:58:58.705Z,97900.09
2018-10-06T12:04:00.873Z,97905.63
2018-10-06T12:06:29.627Z,97903.85
2018-10-06T12:08:58.015Z,97896.30
2018-10-06T12:11:26.304Z,97890.73
2018-10-06T12:13:54.486Z,97901.68
2018-10-06T12:16:24.469Z,97898.39
2018-10-06T12:18:52.034Z,97890.70
2018-10-06T12:21:21.733Z,97895.13
2018-10-06T12:23:51.496Z,97890.62
2018-10-06T12:26:23.164Z,97899.38
2018-10-06T12:28:52.425Z,97891.23
2018-10-06T12:31:22.587Z,97892.09
2018-10-06T12:33:50.136Z,97894.34
2018-10-06T12:36:18.996Z,97888.55
2018-10-06T12:38:48.118Z,97896.54
2018-10-06T12:41:19.712Z,97884.56
2018-10-06T12:43:50.751Z,97888.70
2018-10-06T12:46:18.543Z,97884.16
2018-10-06T12:48:50.630Z,97874.80
2018-10-06T12:51:19.932Z,97884.54
2018-10-06T12:53:50.421Z,97875.90
2018-10-06T12:56:18.040Z,97878.05
2018-10-06T12:58:46.498Z,97879.80
2018-10-06T13:01:17.550Z,97867.89
2018-10-06T13:03:45.706Z,97870.41
2018-10-06T13:06:14.273Z,97865.88
2018-10-06T13:08:43.499Z,97864.56
2018-10-06T13:11:12.643Z,97864.52
2018-10-06T13:13:40.494Z,97868.44
2018-10-06T13:16:11.684Z,97871.75
2018-10-06T13:18:39.474Z,97862.55
2018-10-06T13:21:07.697Z,97860.33
2018-10-06T13:23:36.867Z,97857.64
2018-10-06T13:26:04.373Z,97858.68
2018-10-06T13:28:32.177Z,97861.00
2018-10-06T13:31:01.101Z,97864.41
2018-10-06T13:33:29.735Z,97866.04
2018-10-06T13:35:57.540Z,97853.15
2018-10-06T13:38:26.160Z,97861.68
2018-10-06T13:40:53.697Z,97853.40
2018-10-06T13:43:21.354Z,97857.70
2018-10-06T13:45:49.675Z,97863.53
2018-10-06T13:48:18.539Z,97861.57
2018-10-06T13:50:46.176Z,97866.22
2018-10-06T13:53:14.272Z,97858.27
2018-10-06T13:55:44.849Z,97857.80
2018-10-06T13:58:12.939Z,97857.91
2018-10-06T14:00:40.786Z,97853.10
2018-10-06T14:03:08.990Z,97846.48
2018-10-06T14:05:36.726Z,97852.60
2018-10-06T14:08:04.313Z,97847.52
2018-10-06T14:10:32.872Z,97851.05
2018-10-06T14:13:00.504Z,97844.35
2018-10-06T14:15:28.180Z,97841.25
2018-10-06T14:17:56.494Z,97840.73
2018-10-06T14:20:23.978Z,97839.61
2018-10-06T14:22:52.578Z,97846.45
2018-10-06T14:25:21.117Z,97831.55
2018-10-06T14:27:48.938Z,97831.06
2018-10-06T14:30:17.143Z,97838.78
2018-10-06T14:32:45.440Z,97836.22
2018-10-06T14:35:14.580Z,97831.55
2018-10-06T14:37:42.870Z,97837.32
2018-10-06T14:40:11.112Z,97831.95
2018-10-06T14:42:39.711Z,97836.47
2018-10-06T14:45:09.166Z,97829.69
2018-10-06T14:47:37.662Z,97824.53
2018-10-06T14:50:06.572Z,97827.72
2018-10-06T14:52:36.249Z,97826.73
2018-10-06T14:55:04.298Z,97827.87
2018-10-06T14:57:32.410Z,97816.38
2018-10-06T15:00:01.533Z,97820.75
2018-10-06T15:02:29.224Z,97814.77
2018-10-06T15:04:58.700Z,97813.06
2018-10-06T15:07:28.604Z,97807.30
2018-10-06T15:09:57.444Z,97803.41
2018-10-06T15:12:28.340Z,97802.43
2018-10-06T15:14:56.712Z,97803.06
2018-10-06T15:17:24.152Z,97795.89
2018-10-06T15:19:52.766Z,97789.20
2018-10-06T15:22:20.588Z,97784.58
2018-10-06T15:24:49.079Z,97784.00
2018-10-06T15:27:17.389Z,97776.25
2018-10-06T15:29:45.874Z,97781.98
2018-10-06T15:32:14.223Z,97781.55
2018-10-06T15:34:42.409Z,97778.66
2018-10-06T15:37:10.034Z,97781.00
2018-10-06T15:39:38.473Z,97783.23
2018-10-06T15:44:33.436Z,97772.28
2018-10-06T15:47:01.330Z,97780.21
2018-10-06T15:49:29.565Z,97779.86
2018-10-06T15:51:58.623Z,97774.99
2018-10-06T15:54:26.177Z,97776.95
2018-10-06T15:56:53.775Z,97774.17
2018-10-06T15:59:21.767Z,97778.18
2018-10-06T16:01:51.340Z,97784.27
2018-10-06T16:04:19.072Z,97778.91
2018-10-06T16:06:46.484Z,97782.09
2018-10-06T16:09:14.892Z,97786.84
2018-10-06T16:11:42.305Z,97786.09
2018-10-06T16:14:09.645Z,97783.14
2018-10-06T16:16:37.141Z,97787.14
2018-10-06T16:19:04.582Z,97787.59
2018-10-06T16:21:33.386Z,97789.88
2018-10-06T16:24:01.664Z,97788.37
2018-10-06T16:26:31.066Z,97790.89
2018-10-06T16:28:59.016Z,97790.74
2018-10-06T16:31:27.301Z,97792.70
2018-10-06T16:33:55.022Z,97796.06
2018-10-06T16:36:22.622Z,97795.54
2018-10-06T16:38:50.947Z,97793.47
2018-10-06T16:41:20.337Z,97796.78
2018-10-06T16:43:47.902Z,97800.13
2018-10-06T16:46:16.809Z,97802.50
2018-10-06T16:48:44.703Z,97798.56
2018-10-06T16:51:12.367Z,97803.61
2018-10-06T16:53:40.491Z,97792.94
2018-10-06T16:56:09.407Z,97799.95
2018-10-06T16:58:36.992Z,97802.91
2018-10-06T17:01:04.793Z,97803.25
2018-10-06T17:03:32.838Z,97798.21
2018-10-06T17:06:00.394Z,97794.04
2018-10-06T17:08:27.830Z,97789.98
2018-10-06T17:10:55.243Z,97786.05
2018-10-06T17:13:22.756Z,97791.34
2018-10-06T17:15:50.826Z,97788.33
2018-10-06T17:18:18.250Z,97790.32
2018-10-06T17:20:45.619Z,97790.52
2018-10-06T17:23:13.873Z,97789.92
2018-10-06T17:25:41.241Z,97791.97
2018-10-06T17:28:08.641Z,97791.59
2018-10-06T17:30:36.143Z,97790.50
2018-10-06T17:33:03.543Z,97787.59
2018-10-06T17:35:31.019Z,97789.45
2018-10-06T17:37:58.469Z,97787.05
2018-10-06T17:40:26.579Z,97784.54
2018-10-06T17:42:53.943Z,97790.72
2018-10-06T17:45:21.353Z,97788.09
2018-10-06T17:47:49.019Z,97784.42
2018-10-06T17:50:17.234Z,97787.38
2018-10-06T17:52:44.406Z,97785.89
2018-10-06T17:55:11.844Z,97791.02
2018-10-06T17:57:39.523Z,97789.22
2018-10-06T18:00:06.896Z,97781.55
2018-10-06T18:02:34.917Z,97777.38
2018-10-06T18:05:02.488Z,97785.06
2018-10-06T18:07:30.847Z,97786.88
2018-10-06T18:09:58.279Z,97788.20
2018-10-06T18:12:25.886Z,97780.97
2018-10-06T18:14:53.496Z,97785.06
2018-10-06T18:17:21.126Z,97796.67
2018-10-06T18:19:48.752Z,97791.90
2018-10-06T18:22:16.247Z,97791.05
2018-10-06T18:24:45.190Z,97787.91
2018-10-06T18:27:19.237Z,97789.54
2018-10-06T18:29:52.827Z,97789.80
2018-10-06T18:32:21.929Z,97797.04
2018-10-06T18:35:01.786Z,97792.30
2018-10-06T18:37:30.571Z,97792.38
2018-10-06T18:40:25.375Z,97796.56
2018-10-06T18:42:55.054Z,97790.98
2018-10-06T18:45:46.380Z,97796.00
2018-10-06T18:48:17.333Z,97796.00
2018-10-06T18:50:46.441Z,97796.42
2018-10-06T18:53:15.083Z,97794.91
2018-10-06T18:55:52.797Z,97787.14
2018-10-06T18:58:35.840Z,97794.16
2018-10-06T19:01:07.598Z,97791.50
2018-10-06T19:03:43.487Z,97793.95
2018-10-06T19:06:11.161Z,97801.55
2018-10-06T19:08:47.918Z,97802.73
2018-10-06T19:11:18.583Z,97800.94
2018-10-06T19:13:48.943Z,97796.11
2018-10-06T19:16:22.610Z,97792.72
2018-10-06T19:19:10.515Z,97797.27
2018-10-06T19:21:52.042Z,97792.63
2018-10-06T19:24:37.591Z,97802.16
2018-10-06T19:27:16.355Z,97807.75
2018-10-06T19:29:52.701Z,97813.23
2018-10-06T19:32:40.978Z,97810.38
2018-10-06T19:35:38.027Z,97806.33
2018-10-06T19:38:18.155Z,97809.46
2018-10-06T19:40:56.183Z,97804.31
2018-10-06T19:43:30.232Z,97799.59
2018-10-06T19:45:58.143Z,97802.72
2018-10-06T19:48:49.723Z,97801.12
2018-10-06T19:51:26.133Z,97805.37
2018-10-06T19:54:00.968Z,97813.82
2018-10-06T19:56:37.998Z,97808.13
2018-10-06T19:59:08.983Z,97810.41
2018-10-06T20:01:50.451Z,97816.69
2018-10-06T20:04:32.579Z,97811.37
2018-10-06T20:07:21.224Z,97812.22
2018-10-06T20:10:07.739Z,97822.75
2018-10-06T20:12:35.941Z,97820.47
2018-10-06T20:15:06.341Z,97815.05
2018-10-06T20:17:35.118Z,97816.92
2018-10-06T20:20:09.751Z,97817.16
2018-10-06T20:22:38.604Z,97821.61
2018-10-06T20:25:10.465Z,97824.80
2018-10-06T20:27:40.659Z,97821.16
2018-10-06T20:30:13.311Z,97819.82
2018-10-06T20:32:41.531Z,97821.89
2018-10-06T20:35:11.193Z,97824.06
2018-10-06T20:37:42.606Z,97822.63
2018-10-06T20:40:11.362Z,97826.08
2018-10-06T20:42:41.017Z,97823.91
2018-10-06T20:45:20.105Z,97833.61
2018-10-06T20:47:52.476Z,97831.71
2018-10-06T20:50:20.986Z,97829.94
2018-10-06T20:52:55.189Z,97832.02
2018-10-06T20:55:34.777Z,97830.80
2018-10-06T20:58:20.980Z,97829.95
2018-10-06T21:01:03.260Z,97826.91
2018-10-06T21:03:32.299Z,97837.13
2018-10-06T21:06:03.024Z,97832.77
2018-10-06T21:08:48.577Z,97829.94
2018-10-06T21:11:20.797Z,97836.11
2018-10-06T21:13:48.165Z,97832.38
2018-10-06T21:16:15.738Z,97831.91
2018-10-06T21:18:43.736Z,97829.81
2018-10-06T21:21:11.089Z,97832.00
2018-10-06T21:23:38.653Z,97828.56
2018-10-06T21:26:06.180Z,97826.75
2018-10-06T21:28:33.561Z,97828.77
2018-10-06T21:31:00.949Z,97832.59
2018-10-06T21:33:28.206Z,97819.30
2018-10-06T21:35:55.524Z,97825.36
2018-10-06T21:38:22.888Z,97819.84
2018-10-06T21:40:50.190Z,97820.09
2018-10-06T21:43:18.143Z,97821.15
2018-10-06T21:45:45.471Z,97821.84
2018-10-06T21:48:12.909Z,97828.40
2018-10-06T21:50:40.335Z,97810.96
2018-10-06T21:53:07.773Z,97818.94
2018-10-06T21:55:35.112Z,97826.23
2018-10-06T21:58:04.336Z,97811.94
2018-10-06T22:00:35.972Z,97819.53
2018-10-06T22:03:04.351Z,97822.16
2018-10-06T22:05:31.731Z,97819.03
2018-10-06T22:07:59.215Z,97819.52
2018-10-06T22:10:47.704Z,97822.75
2018-10-06T22:13:15.249Z,97823.13
2018-10-06T22:15:50.470Z,97825.67
2018-10-06T22:18:17.808Z,97828.06
2018-10-06T22:20:47.744Z,97823.97
2018-10-06T22:23:15.632Z,97826.52
2018-10-06T22:25:42.993Z,97824.73
2018-10-06T22:28:10.285Z,97829.20
2018-10-06T22:30:37.629Z,97831.75
2018-10-06T22:33:05.005Z,97832.88
2018-10-06T22:35:32.346Z,97840.85
2018-10-06T22:37:59.721Z,97843.13
2018-10-06T22:40:27.261Z,97840.38
2018-10-06T22:42:54.628Z,97847.39
2018-10-06T22:45:22.066Z,97850.15
2018-10-06T22:47:49.521Z,97844.35
2018-10-06T22:50:17.513Z,97837.14
2018-10-06T22:52:46.552Z,97843.39
2018-10-06T22:55:13.920Z,97833.80
2018-10-06T22:57:41.269Z,97828.00
2018-10-06T23:00:08.779Z,97826.65
2018-10-06T23:02:36.898Z,97819.14
2018-10-06T23:05:05.260Z,97824.02
2018-10-06T23:07:33.630Z,97824.45
2018-10-06T23:10:04.647Z,97835.80
2018-10-06T23:12:32.907Z,97824.84
2018-10-06T23:15:00.922Z,97832.77
2018-10-06T23:17:28.286Z,97828.84
2018-10-06T23:19:55.662Z,97830.23
2018-10-06T23:22:23.170Z,97830.98
2018-10-06T23:24:50.576Z,97832.75
2018-10-06T23:27:18.117Z,97839.02
2018-10-06T23:29:46.110Z,97838.22
2018-10-06T23:32:13.629Z,97838.73
2018-10-06T23:34:41.702Z,97833.38
2018-10-06T23:37:09.254Z,97841.13
2018-10-06T23:39:36.803Z,97835.98
2018-10-06T23:42:04.931Z,97833.89
2018-10-06T23:44:33.677Z,97838.20
2018-10-06T23:47:01.877Z,97831.70
2018-10-06T23:49:29.251Z,97836.44
2018-10-06T23:51:57.364Z,97831.41
2018-10-06T23:54:29.137Z,97832.58
2018-10-06T23:56:58.771Z,97828.81
2018-10-06T23:59:26.537Z,97832.80
